createdAt,value
2016-06-29T00:00:07.925Z,22.76
2016-06-29T00:01:08.539Z,22.73
2016-06-29T00:02:07.934Z,22.67
2016-06-29T00:03:07.899Z,22.72
2016-06-29T00:04:08.529Z,22.57
2016-06-29T00:05:07.905Z,22.67
2016-06-29T00:06:08.538Z,22.6
2016-06-29T00:07:08.575Z,22.64
2016-06-29T00:08:09.615Z,22.55
2016-06-29T00:09:08.552Z,22.61
2016-06-29T00:10:08.782Z,22.57
2016-06-29T00:11:08.552Z,22.6
2016-06-29T00:12:07.946Z,22.61
2016-06-29T00:13:07.940Z,22.57
2016-06-29T00:14:08.575Z,22.51
2016-06-29T00:15:08.571Z,22.51
2016-06-29T00:16:08.569Z,22.58
2016-06-29T00:17:08.569Z,22.58
2016-06-29T00:18:08.596Z,22.61
2016-06-29T00:19:09.757Z,22.49
2016-06-29T00:20:07.959Z,22.61
2016-06-29T00:21:08.923Z,22.58
2016-06-29T00:22:08.607Z,22.58
2016-06-29T00:23:07.364Z,22.68
2016-06-29T00:24:08.602Z,22.6
2016-06-29T00:25:08.602Z,22.52
2016-06-29T00:26:07.988Z,22.42
2016-06-29T00:27:08.010Z,22.47
2016-06-29T00:28:07.997Z,22.6
2016-06-29T00:29:07.402Z,22.62
2016-06-29T00:30:08.004Z,22.62
2016-06-29T00:31:08.631Z,22.61
2016-06-29T00:32:09.191Z,22.55
2016-06-29T00:33:08.638Z,22.57
2016-06-29T00:34:08.709Z,22.62
2016-06-29T00:35:08.023Z,22.62
2016-06-29T00:36:08.636Z,22.64
2016-06-29T00:37:08.653Z,22.57
2016-06-29T00:38:08.662Z,22.6
2016-06-29T00:39:08.036Z,22.57
2016-06-29T00:40:07.430Z,22.51
2016-06-29T00:41:08.049Z,22.58
2016-06-29T00:42:08.084Z,22.6
2016-06-29T00:43:09.566Z,22.52
2016-06-29T00:44:07.449Z,22.46
2016-06-29T00:45:08.686Z,22.46
2016-06-29T00:46:08.684Z,22.57
2016-06-29T00:47:08.073Z,22.45
2016-06-29T00:48:08.079Z,22.51
2016-06-29T00:49:08.082Z,22.58
2016-06-29T00:50:08.277Z,22.61
2016-06-29T00:51:08.704Z,22.6
2016-06-29T00:52:08.091Z,22.58
2016-06-29T00:53:07.467Z,22.49
2016-06-29T00:54:08.093Z,22.52
2016-06-29T00:55:08.092Z,22.47
2016-06-29T00:56:08.729Z,22.52
2016-06-29T00:57:07.501Z,22.62
2016-06-29T00:58:08.094Z,22.45
2016-06-29T00:59:08.109Z,22.47
2016-06-29T01:00:08.741Z,22.46
2016-06-29T01:01:09.249Z,22.54
2016-06-29T01:02:08.136Z,22.43
2016-06-29T01:03:08.384Z,22.43
2016-06-29T01:04:08.126Z,22.4
2016-06-29T01:05:07.537Z,22.43
2016-06-29T01:06:08.762Z,22.43
2016-06-29T01:07:08.142Z,22.42
2016-06-29T01:08:08.778Z,22.42
2016-06-29T01:09:08.139Z,22.46
2016-06-29T01:10:08.170Z,22.37
2016-06-29T01:11:08.788Z,22.33
2016-06-29T01:12:09.124Z,22.37
2016-06-29T01:13:08.178Z,22.37
2016-06-29T01:14:09.530Z,22.43
2016-06-29T01:15:08.403Z,22.36
2016-06-29T01:16:07.560Z,22.43
2016-06-29T01:17:08.793Z,22.45
2016-06-29T01:18:08.188Z,22.39
2016-06-29T01:19:08.196Z,22.37
2016-06-29T01:20:08.822Z,22.4
2016-06-29T01:21:08.855Z,22.4
2016-06-29T01:22:08.848Z,22.47
2016-06-29T01:23:08.210Z,22.45
2016-06-29T01:24:07.580Z,22.47
2016-06-29T01:25:09.777Z,22.39
2016-06-29T01:26:08.214Z,22.4
2016-06-29T01:27:08.876Z,22.46
2016-06-29T01:28:08.851Z,22.45
2016-06-29T01:29:08.223Z,22.37
2016-06-29T01:30:08.228Z,22.33
2016-06-29T01:31:07.612Z,22.43
2016-06-29T01:32:08.230Z,22.39
2016-06-29T01:33:08.844Z,22.37
2016-06-29T01:34:08.243Z,22.37
2016-06-29T01:35:08.858Z,22.35
2016-06-29T01:36:09.875Z,22.36
2016-06-29T01:37:08.875Z,22.3
2016-06-29T01:38:08.253Z,22.4
2016-06-29T01:39:07.646Z,22.4
2016-06-29T01:40:08.872Z,22.28
2016-06-29T01:41:08.891Z,22.28
2016-06-29T01:42:07.651Z,22.25
2016-06-29T01:43:07.650Z,22.25
2016-06-29T01:44:08.887Z,22.3
2016-06-29T01:45:08.378Z,22.28
2016-06-29T01:46:08.925Z,22.4
2016-06-29T01:47:08.299Z,22.37
2016-06-29T01:48:08.919Z,22.31
2016-06-29T01:49:08.907Z,22.27
2016-06-29T01:50:07.687Z,22.28
2016-06-29T01:51:08.926Z,22.33
2016-06-29T01:52:08.915Z,22.22
2016-06-29T01:53:07.690Z,22.22
2016-06-29T01:54:08.309Z,22.1
2016-06-29T01:55:08.925Z,22.17
2016-06-29T01:56:08.410Z,22.22
2016-06-29T01:57:08.344Z,22.15
2016-06-29T01:58:10.255Z,22.3
2016-06-29T01:59:08.329Z,22.36
2016-06-29T02:00:07.709Z,22.25
2016-06-29T02:01:08.944Z,22.27
2016-06-29T02:02:08.332Z,22.33
2016-06-29T02:03:08.941Z,22.25
2016-06-29T02:04:08.385Z,22.27
2016-06-29T02:05:08.959Z,22.31
2016-06-29T02:06:07.714Z,22.25
2016-06-29T02:07:08.839Z,22.12
2016-06-29T02:08:08.970Z,22.2
2016-06-29T02:09:08.979Z,22.2
2016-06-29T02:10:08.361Z,22.18
2016-06-29T02:11:08.355Z,22.25
2016-06-29T02:12:08.980Z,22.24
2016-06-29T02:13:08.376Z,22.21
2016-06-29T02:14:09.002Z,22.25
2016-06-29T02:15:08.373Z,22.17
2016-06-29T02:16:08.409Z,22.2
2016-06-29T02:17:08.397Z,22.18
2016-06-29T02:18:09.693Z,22.2
2016-06-29T02:19:08.399Z,22.15
2016-06-29T02:20:09.070Z,22.25
2016-06-29T02:21:09.053Z,22.21
2016-06-29T02:22:09.021Z,22.18
2016-06-29T02:23:08.413Z,22.21
2016-06-29T02:24:08.452Z,22.14
2016-06-29T02:25:09.028Z,22.21
2016-06-29T02:26:08.405Z,22.22
2016-06-29T02:27:07.804Z,22.12
2016-06-29T02:28:07.801Z,22.17
2016-06-29T02:29:09.988Z,22.14
2016-06-29T02:30:09.052Z,22.18
2016-06-29T02:31:08.424Z,22.21
2016-06-29T02:32:09.066Z,22.15
2016-06-29T02:33:09.045Z,22.15
2016-06-29T02:34:08.444Z,22.06
2016-06-29T02:35:09.067Z,22.07
2016-06-29T02:36:07.834Z,22.02
2016-06-29T02:37:09.068Z,22.03
2016-06-29T02:38:08.458Z,22.03
2016-06-29T02:39:08.448Z,22.06
2016-06-29T02:40:10.199Z,22.15
2016-06-29T02:41:08.474Z,22.2
2016-06-29T02:42:09.437Z,22.03
2016-06-29T02:43:08.490Z,22.06
2016-06-29T02:44:08.476Z,22.02
2016-06-29T02:45:08.466Z,22.06
2016-06-29T02:46:08.489Z,22.12
2016-06-29T02:47:09.104Z,22.12
2016-06-29T02:48:09.103Z,22.06
2016-06-29T02:49:09.101Z,21.88
2016-06-29T02:50:08.492Z,22.05
2016-06-29T02:51:07.882Z,22
2016-06-29T02:52:09.116Z,22
2016-06-29T02:53:09.566Z,21.94
2016-06-29T02:54:07.880Z,22.02
2016-06-29T02:55:08.514Z,22
2016-06-29T02:56:09.126Z,21.94
2016-06-29T02:57:09.126Z,22.03
2016-06-29T02:58:09.135Z,21.9
2016-06-29T02:59:07.893Z,22.09
2016-06-29T03:00:09.129Z,21.88
2016-06-29T03:01:08.537Z,22.07
2016-06-29T03:02:10.237Z,22.03
2016-06-29T03:03:09.152Z,22.09
2016-06-29T03:04:09.758Z,22.09
2016-06-29T03:05:07.921Z,22.03
2016-06-29T03:06:09.183Z,22.14
2016-06-29T03:07:09.186Z,22.1
2016-06-29T03:08:07.940Z,22.12
2016-06-29T03:09:09.176Z,21.9
2016-06-29T03:10:08.583Z,21.92
2016-06-29T03:11:08.557Z,21.83
2016-06-29T03:12:09.181Z,21.91
2016-06-29T03:13:08.574Z,21.94
2016-06-29T03:14:09.202Z,21.88
2016-06-29T03:15:09.464Z,21.91
2016-06-29T03:16:08.567Z,21.92
2016-06-29T03:17:08.577Z,22.06
2016-06-29T03:18:08.574Z,21.88
2016-06-29T03:19:09.198Z,22.07
2016-06-29T03:20:07.969Z,22.06
2016-06-29T03:21:09.301Z,22.21
2016-06-29T03:22:08.593Z,22.18
2016-06-29T03:23:08.596Z,22.12
2016-06-29T03:24:08.601Z,22.12
2016-06-29T03:25:08.598Z,22.02
2016-06-29T03:26:09.576Z,22.02
2016-06-29T03:27:09.220Z,21.99
2016-06-29T03:28:08.603Z,22.15
2016-06-29T03:29:09.231Z,22.2
2016-06-29T03:30:08.613Z,22.21
2016-06-29T03:31:08.620Z,22.12
2016-06-29T03:32:09.242Z,22
2016-06-29T03:33:08.005Z,22.02
2016-06-29T03:34:08.020Z,22
2016-06-29T03:35:08.637Z,22.06
2016-06-29T03:36:09.266Z,22.03
2016-06-29T03:37:08.037Z,22.02
2016-06-29T03:38:09.264Z,22.12
2016-06-29T03:39:08.665Z,22.12
2016-06-29T03:40:08.037Z,22.05
2016-06-29T03:41:08.039Z,22.03
2016-06-29T03:42:08.681Z,21.91
2016-06-29T03:43:08.648Z,22.02
2016-06-29T03:44:09.279Z,22.18
2016-06-29T03:45:08.049Z,22.22
2016-06-29T03:46:08.831Z,22.14
2016-06-29T03:47:08.694Z,22.2
2016-06-29T03:48:09.307Z,22.21
2016-06-29T03:49:09.298Z,22.22
2016-06-29T03:50:08.686Z,22.22
2016-06-29T03:51:08.084Z,22.18
2016-06-29T03:52:08.085Z,22.05
2016-06-29T03:53:08.702Z,22.05
2016-06-29T03:54:08.093Z,22
2016-06-29T03:55:08.718Z,22.06
2016-06-29T03:56:08.711Z,22.09
2016-06-29T03:57:09.584Z,22.03
2016-06-29T03:58:08.716Z,22.09
2016-06-29T03:59:09.348Z,22.02
2016-06-29T04:00:08.730Z,21.84
2016-06-29T04:01:08.739Z,21.98
2016-06-29T04:02:08.114Z,21.96
2016-06-29T04:03:08.723Z,21.94
2016-06-29T04:04:09.343Z,21.91
2016-06-29T04:05:08.732Z,21.86
2016-06-29T04:06:09.393Z,21.88
2016-06-29T04:07:09.353Z,21.9
2016-06-29T04:08:09.756Z,21.86
2016-06-29T04:09:08.756Z,21.9
2016-06-29T04:10:09.422Z,21.9
2016-06-29T04:11:08.758Z,21.82
2016-06-29T04:12:08.770Z,21.82
2016-06-29T04:13:09.430Z,21.8
2016-06-29T04:14:09.391Z,21.86
2016-06-29T04:15:08.756Z,21.9
2016-06-29T04:16:08.773Z,21.94
2016-06-29T04:17:09.389Z,22
2016-06-29T04:18:09.412Z,21.94
2016-06-29T04:19:09.575Z,21.91
2016-06-29T04:20:08.809Z,21.9
2016-06-29T04:21:09.706Z,22.06
2016-06-29T04:22:08.837Z,21.91
2016-06-29T04:23:08.799Z,21.91
2016-06-29T04:24:09.425Z,21.9
2016-06-29T04:25:09.412Z,21.86
2016-06-29T04:26:09.424Z,21.92
2016-06-29T04:27:08.817Z,21.96
2016-06-29T04:28:09.416Z,21.94
2016-06-29T04:29:09.440Z,21.92
2016-06-29T04:30:10.494Z,21.94
2016-06-29T04:31:09.433Z,21.9
2016-06-29T04:32:10.163Z,21.98
2016-06-29T04:33:08.835Z,21.9
2016-06-29T04:34:09.451Z,21.9
2016-06-29T04:35:08.830Z,21.92
2016-06-29T04:36:09.447Z,21.83
2016-06-29T04:37:08.843Z,21.88
2016-06-29T04:38:08.835Z,21.84
2016-06-29T04:39:08.842Z,21.77
2016-06-29T04:40:08.849Z,21.82
2016-06-29T04:41:08.853Z,21.83
2016-06-29T04:42:08.234Z,21.79
2016-06-29T04:43:09.798Z,21.75
2016-06-29T04:44:09.480Z,21.79
2016-06-29T04:45:09.507Z,21.9
2016-06-29T04:46:09.475Z,21.77
2016-06-29T04:47:09.503Z,21.83
2016-06-29T04:48:09.499Z,21.71
2016-06-29T04:49:08.879Z,21.79
2016-06-29T04:50:08.885Z,21.83
2016-06-29T04:51:08.907Z,21.88
2016-06-29T04:52:10.257Z,21.86
2016-06-29T04:53:09.523Z,21.77
2016-06-29T04:54:10.559Z,21.8
2016-06-29T04:55:08.893Z,21.77
2016-06-29T04:56:08.894Z,21.84
2016-06-29T04:57:08.284Z,21.9
2016-06-29T04:58:08.912Z,21.91
2016-06-29T04:59:08.317Z,21.96
2016-06-29T05:00:08.291Z,21.94
2016-06-29T05:01:09.526Z,22.03
2016-06-29T05:02:08.307Z,22.03
2016-06-29T05:03:10.438Z,22.24
2016-06-29T05:04:08.926Z,22.25
2016-06-29T05:05:10.169Z,22.3
2016-06-29T05:06:08.924Z,22.35
2016-06-29T05:07:08.936Z,22.45
2016-06-29T05:08:08.936Z,22.49
2016-06-29T05:09:23.785Z,22.58
2016-06-29T05:10:08.949Z,22.58
2016-06-29T05:11:08.344Z,22.62
2016-06-29T05:12:08.969Z,22.61
2016-06-29T05:13:08.961Z,22.61
2016-06-29T05:14:08.970Z,22.62
2016-06-29T05:15:08.976Z,22.55
2016-06-29T05:16:10.530Z,22.49
2016-06-29T05:17:09.624Z,22.57
2016-06-29T05:18:08.363Z,22.45
2016-06-29T05:19:08.993Z,22.47
2016-06-29T05:20:09.633Z,22.47
2016-06-29T05:21:09.640Z,22.43
2016-06-29T05:22:09.719Z,22.4
2016-06-29T05:23:09.681Z,22.27
2016-06-29T05:24:09.642Z,22.46
2016-06-29T05:25:10.607Z,22.49
2016-06-29T05:26:09.653Z,22.57
2016-06-29T05:27:10.566Z,22.49
2016-06-29T05:28:09.656Z,22.64
2016-06-29T05:29:09.045Z,22.67
2016-06-29T05:30:09.678Z,22.72
2016-06-29T05:31:09.127Z,22.94
2016-06-29T05:32:09.056Z,22.88
2016-06-29T05:33:09.680Z,22.95
2016-06-29T05:34:09.079Z,23
2016-06-29T05:35:08.449Z,22.97
2016-06-29T05:36:09.699Z,22.91
2016-06-29T05:37:09.077Z,22.88
2016-06-29T05:38:10.982Z,22.75
2016-06-29T05:39:09.101Z,22.77
2016-06-29T05:40:09.721Z,22.64
2016-06-29T05:41:09.106Z,22.54
2016-06-29T05:42:09.754Z,22.42
2016-06-29T05:43:09.743Z,22.42
2016-06-29T05:44:09.743Z,22.43
2016-06-29T05:45:09.771Z,22.27
2016-06-29T05:46:09.758Z,22.35
2016-06-29T05:47:09.809Z,22.39
2016-06-29T05:48:09.145Z,22.45
2016-06-29T05:49:09.147Z,22.46
2016-06-29T05:50:09.157Z,22.43
2016-06-29T05:51:09.769Z,22.35
2016-06-29T05:52:09.782Z,22.21
2016-06-29T05:53:09.783Z,22.33
2016-06-29T05:54:09.800Z,22.28
2016-06-29T05:55:09.165Z,22.18
2016-06-29T05:56:09.175Z,22.15
2016-06-29T05:57:09.193Z,22.25
2016-06-29T05:58:09.814Z,22.33
2016-06-29T05:59:09.816Z,22.27
2016-06-29T06:00:09.819Z,22.21
2016-06-29T06:01:09.196Z,22.2
2016-06-29T06:02:09.198Z,22.15
2016-06-29T06:03:09.200Z,22.14
2016-06-29T06:04:09.844Z,22.22
2016-06-29T06:05:09.219Z,22.14
2016-06-29T06:06:09.210Z,22.03
2016-06-29T06:07:09.216Z,22.1
2016-06-29T06:08:09.223Z,22.03
2016-06-29T06:09:10.280Z,22.17
2016-06-29T06:10:09.843Z,22.06
2016-06-29T06:11:09.855Z,22.22
2016-06-29T06:12:09.248Z,22.25
2016-06-29T06:13:09.859Z,22.21
2016-06-29T06:14:09.862Z,22.07
2016-06-29T06:15:09.237Z,22.21
2016-06-29T06:16:09.878Z,22.21
2016-06-29T06:17:09.247Z,22.21
2016-06-29T06:18:09.254Z,22.18
2016-06-29T06:19:09.260Z,22.05
2016-06-29T06:20:10.893Z,22.15
2016-06-29T06:21:09.270Z,22.14
2016-06-29T06:22:09.477Z,22.12
2016-06-29T06:23:09.944Z,21.98
2016-06-29T06:24:09.289Z,22.02
2016-06-29T06:25:09.910Z,22.06
2016-06-29T06:26:09.320Z,22.15
2016-06-29T06:27:09.908Z,22.06
2016-06-29T06:28:09.961Z,22.07
2016-06-29T06:29:09.917Z,22.06
2016-06-29T06:30:09.307Z,21.99
2016-06-29T06:31:09.316Z,21.99
2016-06-29T06:32:09.937Z,22.03
2016-06-29T06:33:09.729Z,22.05
2016-06-29T06:34:09.943Z,21.91
2016-06-29T06:35:09.329Z,21.86
2016-06-29T06:36:09.938Z,21.86
2016-06-29T06:37:09.314Z,21.83
2016-06-29T06:38:09.331Z,21.9
2016-06-29T06:39:08.757Z,21.98
2016-06-29T06:40:09.957Z,21.91
2016-06-29T06:41:09.339Z,21.86
2016-06-29T06:42:09.341Z,21.88
2016-06-29T06:43:09.975Z,21.83
2016-06-29T06:44:09.950Z,21.92
2016-06-29T06:45:09.967Z,22.24
2016-06-29T06:46:09.365Z,22.3
2016-06-29T06:47:09.986Z,22.45
2016-06-29T06:48:09.386Z,22.4
2016-06-29T06:49:08.768Z,22.22
2016-06-29T06:50:09.994Z,22.43
2016-06-29T06:51:10.010Z,22.42
2016-06-29T06:52:09.995Z,22.39
2016-06-29T06:53:09.386Z,22.45
2016-06-29T06:54:10.016Z,22.42
2016-06-29T06:55:10.165Z,22.37
2016-06-29T06:56:09.407Z,22.39
2016-06-29T06:57:10.034Z,22.39
2016-06-29T06:58:09.465Z,22.43
2016-06-29T06:59:09.408Z,22.47
2016-06-29T07:00:10.031Z,22.7
2016-06-29T07:01:10.046Z,22.88
2016-06-29T07:02:10.106Z,22.83
2016-06-29T07:03:10.052Z,22.82
2016-06-29T07:04:09.442Z,22.68
2016-06-29T07:05:09.433Z,22.47
2016-06-29T07:06:10.186Z,22.58
2016-06-29T07:07:09.471Z,22.68
2016-06-29T07:08:09.451Z,22.77
2016-06-29T07:09:09.464Z,22.7
2016-06-29T07:10:10.102Z,22.7
2016-06-29T07:11:08.870Z,22.67
2016-06-29T07:12:10.113Z,22.52
2016-06-29T07:13:10.297Z,22.47
2016-06-29T07:14:09.513Z,22.49
2016-06-29T07:15:10.125Z,22.37
2016-06-29T07:16:10.123Z,22.28
2016-06-29T07:17:11.257Z,22.45
2016-06-29T07:18:09.538Z,22.24
2016-06-29T07:19:10.153Z,22.42
2016-06-29T07:20:10.134Z,22.27
2016-06-29T07:21:09.523Z,22.2
2016-06-29T07:22:10.163Z,22.27
2016-06-29T07:23:10.159Z,22.27
2016-06-29T07:24:09.614Z,22.22
2016-06-29T07:25:09.540Z,22.27
2016-06-29T07:26:09.545Z,22.25
2016-06-29T07:27:10.161Z,22.21
2016-06-29T07:28:09.037Z,22.21
2016-06-29T07:29:10.171Z,22.2
2016-06-29T07:30:08.948Z,22.15
2016-06-29T07:31:10.178Z,22.14
2016-06-29T07:32:10.199Z,22.15
2016-06-29T07:33:10.190Z,22.12
2016-06-29T07:34:10.220Z,22.24
2016-06-29T07:35:10.464Z,22.21
2016-06-29T07:36:08.966Z,22.15
2016-06-29T07:37:10.099Z,22.18
2016-06-29T07:38:09.618Z,22.22
2016-06-29T07:39:09.659Z,22.25
2016-06-29T07:40:10.219Z,22.28
2016-06-29T07:41:09.659Z,22.22
2016-06-29T07:42:09.652Z,22.25
2016-06-29T07:43:09.611Z,22.22
2016-06-29T07:44:09.620Z,22.21
2016-06-29T07:45:09.003Z,22.22
2016-06-29T07:46:10.714Z,22.37
2016-06-29T07:47:10.240Z,22.46
2016-06-29T07:48:09.826Z,22.6
2016-06-29T07:49:09.624Z,22.85
2016-06-29T07:50:10.281Z,22.91
2016-06-29T07:51:09.647Z,22.97
2016-06-29T07:52:09.645Z,22.88
2016-06-29T07:53:10.270Z,22.88
2016-06-29T07:54:09.674Z,22.88
2016-06-29T07:55:09.027Z,22.79
2016-06-29T07:56:10.282Z,22.73
2016-06-29T07:57:10.981Z,22.8
2016-06-29T07:58:09.679Z,22.68
2016-06-29T07:59:10.809Z,22.68
2016-06-29T08:00:09.723Z,22.79
2016-06-29T08:01:09.923Z,22.8
2016-06-29T08:02:10.312Z,22.65
2016-06-29T08:03:09.705Z,22.7
2016-06-29T08:04:10.333Z,22.62
2016-06-29T08:05:09.715Z,22.54
2016-06-29T08:06:10.341Z,22.58
2016-06-29T08:07:09.698Z,22.6
2016-06-29T08:08:11.326Z,22.58
2016-06-29T08:09:09.117Z,22.68
2016-06-29T08:10:11.149Z,22.82
2016-06-29T08:11:09.727Z,22.83
2016-06-29T08:12:10.084Z,22.76
2016-06-29T08:13:10.393Z,22.67
2016-06-29T08:14:09.750Z,22.77
2016-06-29T08:15:09.122Z,22.62
2016-06-29T08:16:09.135Z,22.57
2016-06-29T08:17:09.760Z,22.67
2016-06-29T08:18:09.754Z,22.72
2016-06-29T08:19:10.387Z,22.55
2016-06-29T08:20:10.380Z,22.76
2016-06-29T08:21:09.157Z,22.61
2016-06-29T08:22:09.764Z,22.62
2016-06-29T08:23:10.277Z,22.57
2016-06-29T08:24:10.475Z,22.58
2016-06-29T08:25:09.793Z,22.62
2016-06-29T08:26:09.794Z,22.62
2016-06-29T08:27:10.426Z,22.55
2016-06-29T08:28:10.424Z,22.57
2016-06-29T08:29:10.451Z,22.62
2016-06-29T08:30:09.873Z,22.65
2016-06-29T08:31:09.827Z,22.61
2016-06-29T08:32:11.087Z,22.52
2016-06-29T08:33:10.461Z,22.55
2016-06-29T08:34:10.839Z,22.52
2016-06-29T08:35:10.463Z,22.49
2016-06-29T08:36:10.472Z,22.46
2016-06-29T08:37:10.475Z,22.47
2016-06-29T08:38:09.229Z,22.42
2016-06-29T08:39:10.484Z,22.39
2016-06-29T08:40:09.874Z,22.49
2016-06-29T08:41:10.477Z,22.52
2016-06-29T08:42:09.859Z,22.46
2016-06-29T08:43:09.459Z,22.42
2016-06-29T08:44:10.488Z,22.37
2016-06-29T08:45:11.355Z,22.43
2016-06-29T08:46:10.526Z,22.39
2016-06-29T08:47:09.883Z,22.33
2016-06-29T08:48:09.901Z,22.24
2016-06-29T08:49:09.897Z,22.3
2016-06-29T08:50:09.902Z,22.46
2016-06-29T08:51:09.902Z,22.37
2016-06-29T08:52:10.919Z,22.4
2016-06-29T08:53:09.923Z,22.42
2016-06-29T08:54:09.919Z,22.42
2016-06-29T08:55:09.920Z,22.43
2016-06-29T08:56:10.559Z,22.46
2016-06-29T08:57:09.928Z,22.39
2016-06-29T08:58:09.318Z,22.33
2016-06-29T08:59:10.556Z,22.4
2016-06-29T09:00:09.949Z,22.3
2016-06-29T09:01:10.570Z,22.25
2016-06-29T09:02:10.624Z,22.37
2016-06-29T09:03:11.424Z,22.42
2016-06-29T09:04:10.638Z,22.46
2016-06-29T09:05:10.420Z,22.42
2016-06-29T09:06:10.588Z,22.36
2016-06-29T09:07:10.592Z,22.43
2016-06-29T09:08:10.613Z,22.4
2016-06-29T09:09:10.619Z,22.37
2016-06-29T09:10:09.993Z,22.47
2016-06-29T09:11:10.598Z,22.45
2016-06-29T09:12:09.388Z,22.42
2016-06-29T09:13:09.994Z,22.47
2016-06-29T09:14:09.386Z,22.45
2016-06-29T09:15:10.002Z,22.39
2016-06-29T09:16:11.343Z,22.55
2016-06-29T09:17:10.644Z,22.51
2016-06-29T09:18:10.643Z,22.47
2016-06-29T09:19:10.033Z,22.58
2016-06-29T09:20:10.650Z,22.58
2016-06-29T09:21:10.038Z,22.58
2016-06-29T09:22:10.033Z,22.72
2016-06-29T09:23:10.662Z,22.57
2016-06-29T09:24:10.654Z,22.6
2016-06-29T09:25:11.660Z,22.62
2016-06-29T09:26:10.693Z,22.61
2016-06-29T09:27:11.808Z,22.64
2016-06-29T09:28:10.729Z,22.65
2016-06-29T09:29:10.683Z,22.58
2016-06-29T09:30:09.478Z,22.62
2016-06-29T09:31:10.136Z,22.62
2016-06-29T09:32:10.714Z,22.57
2016-06-29T09:33:10.096Z,22.51
2016-06-29T09:34:10.732Z,22.52
2016-06-29T09:35:10.103Z,22.51
2016-06-29T09:36:10.106Z,22.57
2016-06-29T09:37:10.719Z,22.51
2016-06-29T09:38:10.110Z,22.45
2016-06-29T09:39:12.794Z,22.52
2016-06-29T09:40:10.731Z,22.49
2016-06-29T09:41:09.514Z,22.62
2016-06-29T09:42:10.132Z,22.61
2016-06-29T09:43:10.155Z,22.58
2016-06-29T09:44:10.144Z,22.6
2016-06-29T09:45:10.788Z,22.57
2016-06-29T09:46:10.146Z,22.58
2016-06-29T09:47:11.059Z,22.58
2016-06-29T09:48:09.575Z,22.52
2016-06-29T09:49:10.155Z,22.52
2016-06-29T09:50:10.161Z,22.47
2016-06-29T09:51:10.835Z,22.54
2016-06-29T09:52:10.790Z,22.6
2016-06-29T09:53:10.810Z,22.67
2016-06-29T09:54:10.193Z,22.65
2016-06-29T09:55:10.819Z,22.64
2016-06-29T09:56:10.825Z,22.58
2016-06-29T09:57:10.240Z,22.61
2016-06-29T09:58:11.191Z,22.57
2016-06-29T09:59:10.240Z,22.6
2016-06-29T10:00:10.205Z,22.65
2016-06-29T10:01:10.222Z,22.62
2016-06-29T10:02:10.227Z,22.72
2016-06-29T10:03:09.617Z,22.76
2016-06-29T10:04:10.238Z,22.76
2016-06-29T10:05:10.238Z,22.7
2016-06-29T10:06:10.231Z,22.72
2016-06-29T10:07:10.855Z,22.62
2016-06-29T10:08:10.863Z,22.64
2016-06-29T10:09:11.051Z,22.64
2016-06-29T10:10:10.885Z,22.76
2016-06-29T10:11:10.878Z,22.75
2016-06-29T10:12:10.272Z,22.72
2016-06-29T10:13:10.883Z,22.64
2016-06-29T10:14:10.295Z,22.67
2016-06-29T10:15:10.282Z,22.6
2016-06-29T10:16:10.286Z,22.64
2016-06-29T10:17:10.297Z,22.61
2016-06-29T10:18:10.908Z,22.73
2016-06-29T10:19:10.938Z,22.65
2016-06-29T10:20:12.011Z,22.72
2016-06-29T10:21:10.952Z,22.65
2016-06-29T10:22:10.370Z,22.65
2016-06-29T10:23:11.001Z,22.72
2016-06-29T10:24:10.955Z,22.62
2016-06-29T10:25:10.983Z,22.58
2016-06-29T10:26:10.942Z,22.55
2016-06-29T10:27:10.994Z,22.57
2016-06-29T10:28:10.968Z,22.54
2016-06-29T10:29:10.335Z,22.65
2016-06-29T10:30:10.342Z,22.67
2016-06-29T10:31:12.153Z,22.7
2016-06-29T10:32:10.972Z,22.7
2016-06-29T10:33:10.758Z,22.68
2016-06-29T10:34:10.358Z,22.68
2016-06-29T10:35:10.373Z,22.67
2016-06-29T10:36:11.005Z,22.7
2016-06-29T10:37:10.999Z,22.77
2016-06-29T10:38:11.008Z,22.67
2016-06-29T10:39:10.395Z,22.68
2016-06-29T10:40:11.011Z,22.65
2016-06-29T10:41:10.402Z,22.82
2016-06-29T10:42:12.071Z,22.88
2016-06-29T10:43:10.411Z,22.85
2016-06-29T10:44:10.922Z,22.92
2016-06-29T10:45:10.413Z,22.95
2016-06-29T10:46:09.818Z,22.94
2016-06-29T10:47:11.055Z,22.88
2016-06-29T10:48:10.480Z,22.85
2016-06-29T10:49:11.063Z,22.83
2016-06-29T10:50:09.823Z,22.77
2016-06-29T10:51:10.439Z,22.77
2016-06-29T10:52:11.073Z,22.76
2016-06-29T10:53:11.090Z,22.7
2016-06-29T10:54:11.115Z,22.7
2016-06-29T10:55:11.485Z,22.72
2016-06-29T10:56:10.478Z,22.79
2016-06-29T10:57:10.499Z,22.68
2016-06-29T10:58:11.110Z,22.68
2016-06-29T10:59:10.537Z,22.65
2016-06-29T11:00:10.499Z,22.68
2016-06-29T11:01:10.506Z,22.8
2016-06-29T11:02:10.502Z,22.8
2016-06-29T11:03:10.510Z,22.8
2016-06-29T11:04:10.695Z,22.82
2016-06-29T11:05:10.518Z,22.83
2016-06-29T11:06:11.752Z,22.8
2016-06-29T11:07:11.210Z,22.85
2016-06-29T11:08:11.151Z,22.86
2016-06-29T11:09:11.169Z,22.79
2016-06-29T11:10:10.532Z,22.83
2016-06-29T11:11:11.241Z,22.83
2016-06-29T11:12:09.934Z,22.86
2016-06-29T11:13:11.186Z,23
2016-06-29T11:14:10.595Z,22.88
2016-06-29T11:15:11.486Z,22.9
2016-06-29T11:16:10.578Z,22.86
2016-06-29T11:17:10.597Z,22.8
2016-06-29T11:18:11.201Z,22.82
2016-06-29T11:19:11.225Z,22.88
2016-06-29T11:20:10.049Z,22.86
2016-06-29T11:21:11.507Z,22.94
2016-06-29T11:22:10.835Z,22.95
2016-06-29T11:23:10.622Z,22.94
2016-06-29T11:24:10.622Z,22.98
2016-06-29T11:25:10.645Z,22.86
2016-06-29T11:26:11.271Z,22.85
2016-06-29T11:27:10.687Z,22.83
2016-06-29T11:28:11.080Z,22.9
2016-06-29T11:29:11.248Z,22.83
2016-06-29T11:30:11.280Z,22.82
2016-06-29T11:31:11.276Z,22.86
2016-06-29T11:32:11.272Z,22.85
2016-06-29T11:33:10.655Z,22.95
2016-06-29T11:34:11.279Z,23.09
2016-06-29T11:35:11.291Z,23.01
2016-06-29T11:36:11.483Z,23.02
2016-06-29T11:37:12.393Z,23.02
2016-06-29T11:38:10.690Z,23.05
2016-06-29T11:39:11.405Z,23.02
2016-06-29T11:40:10.823Z,23
2016-06-29T11:41:11.322Z,23.01
2016-06-29T11:42:10.783Z,23.02
2016-06-29T11:43:10.712Z,22.98
2016-06-29T11:44:10.712Z,23.16
2016-06-29T11:45:11.342Z,23.15
2016-06-29T11:46:11.339Z,23.15
2016-06-29T11:47:11.351Z,23.09
2016-06-29T11:48:12.312Z,23.17
2016-06-29T11:49:10.739Z,23.13
2016-06-29T11:50:12.225Z,23.17
2016-06-29T11:51:10.773Z,23.13
2016-06-29T11:52:10.771Z,23.1
2016-06-29T11:53:10.769Z,23.16
2016-06-29T11:54:10.812Z,23.2
2016-06-29T11:55:11.394Z,23.17
2016-06-29T11:56:11.397Z,23.17
2016-06-29T11:57:11.432Z,23.32
2016-06-29T11:58:10.786Z,23.25
2016-06-29T11:59:11.434Z,23.22
2016-06-29T12:00:11.439Z,23.25
2016-06-29T12:01:12.645Z,23.31
2016-06-29T12:02:11.450Z,23.33
2016-06-29T12:03:10.828Z,23.28
2016-06-29T12:04:11.446Z,23.36
2016-06-29T12:05:10.833Z,23.31
2016-06-29T12:06:10.229Z,23.25
2016-06-29T12:07:10.850Z,23.36
2016-06-29T12:08:10.850Z,23.31
2016-06-29T12:09:25.066Z,23.23
2016-06-29T12:10:11.227Z,23.32
2016-06-29T12:11:10.857Z,23.33
2016-06-29T12:12:11.480Z,23.27
2016-06-29T12:13:10.880Z,23.4
2016-06-29T12:14:10.892Z,23.4
2016-06-29T12:15:10.927Z,23.36
2016-06-29T12:16:11.501Z,23.43
2016-06-29T12:17:10.888Z,23.38
2016-06-29T12:18:11.514Z,23.39
2016-06-29T12:19:10.923Z,23.43
2016-06-29T12:20:10.905Z,23.33
2016-06-29T12:21:11.678Z,23.35
2016-06-29T12:22:10.915Z,23.35
2016-06-29T12:23:10.928Z,23.2
2016-06-29T12:24:11.541Z,23.33
2016-06-29T12:25:10.319Z,23.31
2016-06-29T12:26:11.553Z,23.33
2016-06-29T12:27:10.950Z,23.28
2016-06-29T12:28:11.557Z,23.39
2016-06-29T12:29:11.569Z,23.38
2016-06-29T12:30:11.579Z,23.39
2016-06-29T12:31:11.630Z,23.46
2016-06-29T12:32:12.479Z,23.39
2016-06-29T12:33:10.978Z,23.42
2016-06-29T12:34:11.817Z,23.42
2016-06-29T12:35:11.591Z,23.47
2016-06-29T12:36:11.006Z,23.5
2016-06-29T12:37:10.991Z,23.43
2016-06-29T12:38:11.617Z,23.42
2016-06-29T12:39:10.400Z,23.47
2016-06-29T12:40:11.619Z,23.5
2016-06-29T12:41:11.024Z,23.51
2016-06-29T12:42:11.045Z,23.48
2016-06-29T12:43:12.424Z,23.47
2016-06-29T12:44:11.641Z,23.43
2016-06-29T12:45:11.945Z,23.46
2016-06-29T12:46:11.666Z,23.54
2016-06-29T12:47:11.047Z,23.5
2016-06-29T12:48:11.705Z,23.48
2016-06-29T12:49:11.063Z,23.54
2016-06-29T12:50:11.087Z,23.55
2016-06-29T12:51:11.705Z,23.57
2016-06-29T12:52:10.455Z,23.53
2016-06-29T12:53:11.074Z,23.54
2016-06-29T12:54:12.990Z,23.54
2016-06-29T12:55:11.096Z,23.54
2016-06-29T12:56:11.890Z,23.55